createdAt,value
2019-05-15T00:04:01.226Z,44.85
2019-05-15T00:09:04.462Z,45.08
2019-05-15T00:14:08.512Z,45.19
2019-05-15T00:19:09.617Z,44.96
2019-05-15T00:24:13.114Z,44.91
2019-05-15T00:29:16.386Z,44.90
2019-05-15T00:34:18.425Z,44.94
2019-05-15T00:39:20.016Z,45.19
2019-05-15T00:44:21.599Z,45.60
2019-05-15T00:49:26.164Z,45.50
2019-05-15T00:54:28.965Z,45.43
2019-05-15T00:59:30.577Z,45.48
2019-05-15T01:04:32.144Z,45.52
2019-05-15T01:09:33.697Z,45.74
2019-05-15T01:14:35.246Z,45.94
2019-05-15T01:19:38.119Z,45.99
2019-05-15T01:24:39.861Z,46.10
2019-05-15T01:29:45.202Z,46.17
2019-05-15T01:34:46.076Z,45.56
2019-05-15T01:39:48.556Z,45.70
2019-05-15T01:44:50.293Z,46.26
2019-05-15T01:49:51.899Z,46.63
2019-05-15T01:54:53.453Z,46.65
2019-05-15T01:59:58.298Z,46.74
2019-05-15T02:04:59.240Z,46.92
2019-05-15T02:10:02.527Z,47.04
2019-05-15T02:15:04.772Z,46.95
2019-05-15T02:20:08.310Z,46.85
2019-05-15T02:25:10.407Z,46.62
2019-05-15T02:30:22.638Z,46.36
2019-05-15T02:35:18.394Z,46.06
2019-05-15T02:40:19.401Z,46.27
2019-05-15T02:45:21.081Z,46.31
2019-05-15T02:50:22.759Z,46.54
2019-05-15T02:55:24.320Z,47.01
2019-05-15T03:00:37.835Z,46.43
2019-05-15T03:05:29.695Z,46.52
2019-05-15T03:10:31.445Z,46.71
2019-05-15T03:15:33.249Z,46.90
2019-05-15T03:20:34.807Z,46.93
2019-05-15T03:25:39.858Z,47.37
2019-05-15T03:31:11.419Z,47.53
2019-05-15T03:35:44.714Z,47.03
2019-05-15T03:40:49.612Z,47.01
2019-05-15T03:45:50.263Z,47.13
2019-05-15T03:50:51.952Z,47.16
2019-05-15T03:55:53.516Z,47.39
2019-05-15T04:00:55.239Z,47.25
2019-05-15T04:06:00.228Z,47.50
2019-05-15T04:11:00.504Z,48.15
2019-05-15T04:16:02.174Z,48.50
2019-05-15T04:21:04.129Z,48.54
2019-05-15T04:26:09.327Z,48.34
2019-05-15T04:31:10.178Z,48.32
2019-05-15T04:36:11.854Z,47.71
2019-05-15T04:41:13.434Z,47.91
2019-05-15T04:46:15.136Z,47.96
2019-05-15T04:51:19.042Z,48.06
2019-05-15T04:56:20.481Z,48.13
2019-05-15T05:01:22.217Z,48.18
2019-05-15T05:06:23.865Z,48.29
2019-05-15T05:11:25.551Z,48.36
2019-05-15T05:16:29.541Z,48.50
2019-05-15T05:21:30.676Z,48.52
2019-05-15T05:26:32.334Z,48.53
2019-05-15T05:31:33.954Z,48.86
2019-05-15T05:36:35.542Z,48.77
2019-05-15T05:41:39.191Z,48.71
2019-05-15T05:46:40.691Z,49.05
2019-05-15T05:51:42.257Z,49.26
2019-05-15T05:56:43.819Z,49.03
2019-05-15T06:01:45.379Z,49.03
2019-05-15T06:06:50.091Z,49.04
2019-05-15T06:11:50.603Z,48.87
2019-05-15T06:16:52.171Z,48.96
2019-05-15T06:21:57.602Z,48.96
2019-05-15T06:26:58.668Z,49.06
2019-05-15T06:32:00.524Z,49.17
2019-05-15T06:37:02.337Z,49.16
2019-05-15T06:42:03.939Z,49.13
2019-05-15T06:47:08.070Z,48.98
2019-05-15T06:52:09.023Z,48.87
2019-05-15T06:57:10.578Z,48.91
2019-05-15T07:02:12.288Z,49.22
2019-05-15T07:07:13.943Z,49.14
2019-05-15T07:12:15.650Z,49.02
2019-05-15T07:17:17.735Z,49.03
2019-05-15T07:22:19.533Z,49.05
2019-05-15T07:27:21.089Z,49.17
2019-05-15T07:32:22.650Z,49.19
2019-05-15T07:37:24.215Z,49.19
2019-05-15T07:42:25.907Z,49.21
2019-05-15T07:47:29.293Z,49.15
2019-05-15T07:52:31.049Z,49.08
2019-05-15T07:57:32.704Z,48.98
2019-05-15T08:02:34.276Z,48.96
2019-05-15T08:07:38.618Z,49.10
2019-05-15T08:12:39.686Z,49.09
2019-05-15T08:18:02.644Z,48.98
2019-05-15T08:22:45.966Z,49.01
2019-05-15T08:27:48.482Z,48.97
2019-05-15T08:32:51.723Z,48.77
2019-05-15T08:37:53.693Z,48.62
2019-05-15T08:42:59.504Z,48.50
2019-05-15T08:47:58.899Z,48.25
2019-05-15T08:53:00.485Z,47.98
2019-05-15T08:58:07.276Z,47.83
2019-05-15T09:03:05.782Z,47.87
2019-05-15T09:08:09.321Z,47.89
2019-05-15T09:13:10.903Z,47.97
2019-05-15T09:18:16.258Z,47.91
2019-05-15T09:23:18.840Z,47.88
2019-05-15T09:28:19.654Z,47.98
2019-05-15T09:33:21.442Z,48.02
2019-05-15T09:38:22.987Z,47.99
2019-05-15T09:43:24.551Z,48.12
2019-05-15T09:48:28.602Z,48.22
2019-05-15T09:53:29.786Z,48.27
2019-05-15T09:58:31.332Z,48.21
2019-05-15T10:03:33.049Z,48.08
2019-05-15T10:08:34.720Z,47.92
2019-05-15T10:13:38.431Z,47.81
2019-05-15T10:18:40.006Z,47.68
2019-05-15T10:23:41.647Z,47.61
2019-05-15T10:28:43.243Z,47.51
2019-05-15T10:33:44.829Z,47.48
2019-05-15T10:38:48.852Z,47.51
2019-05-15T10:43:56.349Z,47.50
2019-05-15T10:48:53.529Z,47.44
2019-05-15T10:53:55.085Z,47.40
2019-05-15T10:58:58.916Z,47.29
2019-05-15T11:04:00.242Z,47.29
2019-05-15T11:09:01.968Z,47.33
2019-05-15T11:14:04.045Z,47.37
2019-05-15T11:19:07.877Z,47.50
2019-05-15T11:24:09.051Z,47.59
2019-05-15T11:29:10.609Z,47.59
2019-05-15T11:34:12.169Z,47.59
2019-05-15T11:39:13.755Z,47.64
2019-05-15T11:44:15.387Z,47.72
2019-05-15T11:49:18.256Z,47.67
2019-05-15T11:54:20.056Z,47.66
2019-05-15T11:59:21.585Z,47.66
2019-05-15T12:04:30.458Z,47.67
2019-05-15T12:09:28.277Z,47.54
2019-05-15T12:14:30.052Z,47.34
2019-05-15T12:19:32.320Z,47.23
2019-05-15T12:24:36.788Z,47.06
2019-05-15T12:29:39.858Z,47.01
2019-05-15T12:34:40.931Z,46.85
2019-05-15T12:39:42.474Z,46.78
2019-05-15T12:59:54.521Z,46.50
2019-05-15T13:04:56.180Z,46.66
2019-05-15T13:09:58.009Z,46.95
2019-05-15T13:14:59.621Z,47.20
2019-05-15T13:20:01.419Z,47.32
2019-05-15T13:25:03.708Z,47.33
2019-05-15T13:30:08.799Z,47.34
2019-05-15T13:35:10.329Z,47.33
2019-05-15T13:40:12.067Z,47.33
2019-05-15T13:45:13.915Z,47.32
2019-05-15T13:50:15.687Z,47.29
2019-05-15T13:55:24.637Z,47.22
2019-05-15T14:00:21.244Z,47.14
2019-05-15T14:05:22.796Z,47.13
2019-05-15T14:10:24.343Z,47.15
2019-05-15T14:15:26.048Z,47.19
2019-05-15T14:20:27.594Z,47.23
2019-05-15T14:25:29.235Z,47.42
2019-05-15T14:30:30.872Z,47.50
2019-05-15T14:35:32.520Z,47.56
2019-05-15T14:40:34.182Z,47.56
2019-05-15T14:45:35.842Z,47.63
2019-05-15T14:50:38.393Z,47.67
2019-05-15T14:55:44.041Z,47.70
2019-05-15T15:00:43.969Z,47.74
2019-05-15T15:05:45.698Z,47.80
2019-05-15T15:10:47.273Z,47.87
2019-05-15T15:15:48.816Z,47.99
2019-05-15T15:20:50.653Z,48.14
2019-05-15T15:25:52.267Z,48.36
2019-05-15T15:30:53.808Z,48.58
2019-05-15T15:35:55.505Z,48.84
2019-05-15T15:41:00.061Z,49.07
2019-05-15T15:46:00.776Z,49.22
2019-05-15T15:51:02.342Z,49.48
2019-05-15T15:56:06.899Z,49.80
2019-05-15T16:01:09.062Z,50.03
2019-05-15T16:06:13.148Z,50.30
2019-05-15T16:11:14.990Z,50.51
2019-05-15T16:16:17.959Z,50.55
2019-05-15T16:21:19.687Z,50.57
2019-05-15T16:26:21.239Z,50.62
2019-05-15T16:31:22.784Z,50.75
2019-05-15T16:36:24.679Z,50.92
2019-05-15T16:41:28.823Z,51.15
2019-05-15T16:46:30.038Z,51.31
2019-05-15T16:51:32.450Z,51.32
2019-05-15T16:56:36.425Z,51.33
2019-05-15T17:01:39.339Z,51.29
2019-05-15T17:06:41.293Z,51.30
2019-05-15T17:11:43.057Z,51.35
2019-05-15T17:16:44.648Z,51.33
2019-05-15T17:21:48.184Z,51.32
2019-05-15T17:26:51.907Z,51.31
2019-05-15T17:31:54.055Z,51.38
2019-05-15T17:36:58.169Z,51.42
2019-05-15T17:41:59.519Z,51.64
2019-05-15T17:47:01.312Z,51.78
2019-05-15T17:52:03.212Z,51.94
2019-05-15T17:57:04.839Z,52.10
2019-05-15T18:02:08.535Z,52.31
2019-05-15T18:07:10.062Z,52.64
2019-05-15T18:12:12.725Z,52.84
2019-05-15T18:17:14.582Z,52.97
2019-05-15T18:22:18.085Z,53.20
2019-05-15T18:27:19.627Z,53.29
2019-05-15T18:32:21.363Z,53.42
2019-05-15T18:37:22.955Z,53.51
2019-05-15T18:42:24.945Z,53.60
2019-05-15T18:47:28.031Z,53.70
2019-05-15T18:52:29.698Z,53.79
2019-05-15T18:57:31.293Z,53.85
2019-05-15T19:02:32.976Z,53.88
2019-05-15T19:07:34.569Z,53.94
2019-05-15T19:12:37.890Z,53.93
2019-05-15T19:17:39.583Z,53.89
2019-05-15T19:22:48.484Z,53.85
2019-05-15T19:27:50.029Z,53.83
2019-05-15T19:32:51.591Z,53.94
2019-05-15T19:37:53.342Z,53.90
2019-05-15T19:42:54.962Z,53.94
2019-05-15T19:47:58.648Z,53.92
2019-05-15T19:53:00.072Z,53.85
2019-05-15T19:58:01.802Z,53.83
2019-05-15T20:03:03.585Z,53.87
2019-05-15T20:08:05.250Z,54.02
2019-05-15T20:13:06.800Z,53.94
2019-05-15T20:18:08.371Z,53.93
2019-05-15T20:23:10.051Z,53.89
2019-05-15T20:28:12.698Z,53.92
2019-05-15T20:33:14.292Z,53.86
2019-05-15T20:38:16.030Z,53.83
2019-05-15T20:43:18.553Z,53.78
2019-05-15T20:48:20.255Z,53.81
2019-05-15T20:53:21.993Z,53.77
2019-05-15T20:58:23.610Z,53.79
2019-05-15T21:03:25.215Z,53.79
2019-05-15T21:08:28.764Z,53.81
2019-05-15T21:13:30.334Z,53.86
2019-05-15T21:18:31.918Z,53.87
2019-05-15T21:23:33.512Z,53.81
2019-05-15T21:28:35.075Z,53.83
2019-05-15T21:33:36.690Z,53.83
2019-05-15T21:38:38.838Z,53.84
2019-05-15T21:43:40.638Z,53.81
2019-05-15T21:48:42.178Z,53.79
2019-05-15T21:53:43.748Z,53.83
2019-05-15T21:58:45.283Z,53.82
2019-05-15T22:03:48.168Z,54.03
2019-05-15T22:08:49.993Z,54.19
2019-05-15T22:13:51.617Z,54.15
2019-05-15T22:18:53.162Z,54.10
2019-05-15T22:23:55.021Z,53.99
2019-05-15T22:28:58.441Z,54.11
2019-05-15T22:34:00.457Z,54.15
2019-05-15T22:39:02.353Z,54.18
2019-05-15T22:44:04.037Z,54.26
2019-05-15T22:49:05.872Z,54.35
2019-05-15T22:54:08.618Z,54.37
2019-05-15T22:59:10.404Z,54.41
2019-05-15T23:04:12.275Z,54.43
2019-05-15T23:09:13.827Z,54.54
2019-05-15T23:14:15.383Z,54.67
2019-05-15T23:19:18.701Z,54.58
2019-05-15T23:24:20.631Z,54.42
2019-05-15T23:29:22.188Z,54.50
2019-05-15T23:34:23.753Z,54.57
2019-05-15T23:39:25.422Z,54.58
2019-05-15T23:44:27.677Z,54.66
2019-05-15T23:49:29.618Z,54.67
2019-05-15T23:54:31.145Z,54.61
2019-05-15T23:59:32.818Z,54.70
